createdAt,value
2018-07-26T00:01:23.169Z,99.90
2018-07-26T00:03:52.192Z,99.90
2018-07-26T00:06:21.298Z,99.90
2018-07-26T00:08:50.317Z,99.90
2018-07-26T00:11:19.371Z,99.90
2018-07-26T00:13:48.395Z,99.90
2018-07-26T00:16:17.584Z,99.90
2018-07-26T00:18:46.580Z,99.90
2018-07-26T00:21:15.585Z,99.90
2018-07-26T00:26:13.227Z,99.90
2018-07-26T00:28:42.464Z,99.90
2018-07-26T00:31:11.466Z,99.90
2018-07-26T00:36:09.199Z,99.90
2018-07-26T00:38:38.232Z,99.90
2018-07-26T00:43:35.945Z,99.90
2018-07-26T00:46:05.013Z,99.90
2018-07-26T00:48:34.028Z,99.90
2018-07-26T00:51:03.097Z,99.90
2018-07-26T00:53:32.101Z,99.90
2018-07-26T00:56:01.114Z,99.90
2018-07-26T00:58:30.159Z,99.90
2018-07-26T01:00:59.152Z,99.90
2018-07-26T01:08:25.418Z,99.90
2018-07-26T01:10:54.426Z,99.90
2018-07-26T01:15:52.038Z,99.90
2018-07-26T01:18:21.085Z,99.90
2018-07-26T01:23:18.684Z,99.90
2018-07-26T01:25:47.746Z,99.90
2018-07-26T01:28:16.922Z,99.90
2018-07-26T01:30:46.022Z,99.90
2018-07-26T01:33:15.151Z,99.90
2018-07-26T01:38:12.996Z,99.90
2018-07-26T01:40:42.775Z,99.90
2018-07-26T01:44:21.197Z,99.90
2018-07-26T01:46:50.291Z,99.90
2018-07-26T01:49:19.357Z,99.90
2018-07-26T01:51:48.449Z,99.90
2018-07-26T01:54:17.621Z,99.90
2018-07-26T01:56:46.663Z,99.90
2018-07-26T02:01:44.594Z,99.90
2018-07-26T02:04:13.604Z,99.90
2018-07-26T02:06:42.653Z,99.90
2018-07-26T02:09:11.992Z,99.90
2018-07-26T02:11:41.073Z,99.90
2018-07-26T02:14:15.842Z,99.90
2018-07-26T02:21:42.531Z,99.90
2018-07-26T02:24:11.601Z,99.90
2018-07-26T02:26:40.620Z,99.90
2018-07-26T02:29:09.618Z,99.90
2018-07-26T02:31:38.615Z,99.90
2018-07-26T02:34:07.762Z,99.90
2018-07-26T02:36:36.872Z,99.90
2018-07-26T02:39:07.315Z,99.90
2018-07-26T02:44:05.087Z,99.90
2018-07-26T02:49:02.753Z,99.90
2018-07-26T02:51:31.770Z,99.90
2018-07-26T02:54:00.773Z,99.90
2018-07-26T02:56:29.766Z,99.90
2018-07-26T02:58:58.763Z,99.90
2018-07-26T03:01:27.745Z,99.90
2018-07-26T03:03:56.752Z,99.90
2018-07-26T03:06:25.806Z,99.90
2018-07-26T03:08:54.851Z,99.90
2018-07-26T03:11:23.940Z,99.90
2018-07-26T03:13:53.034Z,99.90
2018-07-26T03:16:22.064Z,99.90
2018-07-26T03:18:51.135Z,99.90
2018-07-26T03:21:20.129Z,99.90
2018-07-26T03:23:49.187Z,99.90
2018-07-26T03:26:18.208Z,99.90
2018-07-26T03:28:47.305Z,99.90
2018-07-26T03:31:16.294Z,99.90
2018-07-26T03:33:45.296Z,99.90
2018-07-26T03:36:14.436Z,99.90
2018-07-26T03:38:44.524Z,99.90
2018-07-26T03:41:13.502Z,99.90
2018-07-26T03:43:42.596Z,99.90
2018-07-26T03:46:11.591Z,99.90
2018-07-26T03:48:40.588Z,99.90
2018-07-26T03:51:09.637Z,99.90
2018-07-26T03:53:38.643Z,99.90
2018-07-26T03:56:07.666Z,99.90
2018-07-26T03:58:36.674Z,99.90
2018-07-26T04:01:05.673Z,99.90
2018-07-26T04:03:34.736Z,99.90
2018-07-26T04:06:03.920Z,99.90
2018-07-26T04:08:32.943Z,99.90
2018-07-26T04:11:01.991Z,99.90
2018-07-26T04:13:31.052Z,99.90
2018-07-26T04:16:00.095Z,99.90
2018-07-26T04:18:29.136Z,99.90
2018-07-26T04:20:58.146Z,99.90
2018-07-26T04:25:55.881Z,99.90
2018-07-26T04:30:53.493Z,99.90
2018-07-26T04:33:22.488Z,99.90
2018-07-26T04:35:51.511Z,99.90
2018-07-26T04:38:20.514Z,99.90
2018-07-26T04:40:49.605Z,99.90
2018-07-26T04:45:47.280Z,99.90
2018-07-26T04:48:16.281Z,99.90
2018-07-26T04:50:45.378Z,99.90
2018-07-26T04:53:14.409Z,99.90
2018-07-26T04:55:43.413Z,99.90
2018-07-26T04:58:12.485Z,99.90
2018-07-26T05:00:41.530Z,99.90
2018-07-26T05:03:10.552Z,99.90
2018-07-26T05:05:39.584Z,99.90
2018-07-26T05:08:08.654Z,99.90
2018-07-26T05:10:37.608Z,99.90
2018-07-26T05:13:06.629Z,99.90
2018-07-26T05:15:35.692Z,99.90
2018-07-26T05:20:33.649Z,99.90
2018-07-26T05:23:02.685Z,99.90
2018-07-26T05:25:31.770Z,99.90
2018-07-26T05:28:00.898Z,99.90
2018-07-26T05:30:29.911Z,99.90
2018-07-26T05:32:59.034Z,99.90
2018-07-26T05:35:28.009Z,99.90
2018-07-26T05:37:57.107Z,99.90
2018-07-26T05:40:26.201Z,99.90
2018-07-26T05:42:55.199Z,99.90
2018-07-26T05:45:24.246Z,99.90
2018-07-26T05:47:53.428Z,99.90
2018-07-26T05:50:22.542Z,99.90
2018-07-26T05:52:51.525Z,99.90
2018-07-26T05:55:20.598Z,99.90
2018-07-26T05:57:49.713Z,99.90
2018-07-26T06:02:47.405Z,99.90
2018-07-26T06:05:16.492Z,99.90
2018-07-26T06:07:46.089Z,99.90
2018-07-26T06:10:15.302Z,99.90
2018-07-26T06:12:44.827Z,99.90
2018-07-26T06:15:13.887Z,99.90
2018-07-26T06:20:12.349Z,99.90
2018-07-26T06:22:41.389Z,99.90
2018-07-26T06:25:10.524Z,99.90
2018-07-26T06:27:39.941Z,99.90
2018-07-26T06:30:10.874Z,99.90
2018-07-26T06:32:40.114Z,99.90
2018-07-26T06:35:09.973Z,99.90
2018-07-26T06:37:39.589Z,99.90
2018-07-26T06:40:08.838Z,99.90
2018-07-26T06:45:07.573Z,99.90
2018-07-26T06:47:36.640Z,99.90
2018-07-26T06:50:07.475Z,99.90
2018-07-26T06:52:36.553Z,99.90
2018-07-26T06:57:34.403Z,99.90
2018-07-26T07:00:04.897Z,99.90
2018-07-26T07:02:33.942Z,99.90
2018-07-26T07:05:02.985Z,99.90
2018-07-26T07:07:32.025Z,99.90
2018-07-26T07:10:01.221Z,99.90
2018-07-26T07:12:30.286Z,99.90
2018-07-26T07:14:59.473Z,99.40
2018-07-26T07:17:28.605Z,98.60
2018-07-26T07:19:57.686Z,97.80
2018-07-26T07:22:26.719Z,98.10
2018-07-26T07:27:24.390Z,95.30
2018-07-26T07:29:53.424Z,96.30
2018-07-26T07:32:22.532Z,97.00
2018-07-26T07:34:51.614Z,95.20
2018-07-26T07:37:20.731Z,94.10
2018-07-26T07:39:49.800Z,94.40
2018-07-26T07:42:18.813Z,94.00
2018-07-26T07:44:47.899Z,91.90
2018-07-26T07:47:16.981Z,92.90
2018-07-26T07:54:43.321Z,92.10
2018-07-26T07:57:12.466Z,90.90
2018-07-26T07:59:41.655Z,90.20
2018-07-26T08:02:10.767Z,83.50
2018-07-26T08:04:39.821Z,83.10
2018-07-26T08:07:08.885Z,82.50
2018-07-26T08:09:37.925Z,80.50
2018-07-26T08:12:07.062Z,83.80
2018-07-26T08:14:36.091Z,82.30
2018-07-26T08:17:05.326Z,87.10
2018-07-26T08:19:34.508Z,78.60
2018-07-26T08:22:03.570Z,75.00
2018-07-26T08:24:32.597Z,79.60
2018-07-26T08:27:01.712Z,75.30
2018-07-26T08:29:30.872Z,75.40
2018-07-26T08:31:59.801Z,73.10
2018-07-26T08:34:28.817Z,74.20
2018-07-26T08:36:57.989Z,74.10
2018-07-26T08:39:27.083Z,76.90
2018-07-26T08:41:56.149Z,74.80
2018-07-26T08:44:25.274Z,70.60
2018-07-26T08:46:54.363Z,65.10
2018-07-26T08:49:23.419Z,62.00
2018-07-26T08:51:52.469Z,51.50
2018-07-26T08:54:21.514Z,57.90
2018-07-26T08:56:50.585Z,53.90
2018-07-26T08:59:19.638Z,53.80
2018-07-26T09:01:48.683Z,52.20
2018-07-26T09:06:46.661Z,52.70
2018-07-26T09:09:15.714Z,53.90
2018-07-26T09:11:44.770Z,54.00
2018-07-26T09:14:13.793Z,54.20
2018-07-26T09:16:42.896Z,55.60
2018-07-26T09:19:12.018Z,52.10
2018-07-26T09:21:41.056Z,49.00
2018-07-26T09:24:10.116Z,49.60
2018-07-26T09:26:39.182Z,49.20
2018-07-26T09:29:08.197Z,48.30
2018-07-26T09:31:37.218Z,48.80
2018-07-26T09:34:06.462Z,49.90
2018-07-26T09:36:35.537Z,51.80
2018-07-26T09:39:10.263Z,48.30
2018-07-26T09:41:39.633Z,48.60
2018-07-26T09:44:08.742Z,46.80
2018-07-26T09:46:38.185Z,49.10
2018-07-26T09:49:07.328Z,49.10
2018-07-26T09:51:36.610Z,47.70
2018-07-26T09:54:05.964Z,48.10
2018-07-26T09:56:35.009Z,48.80
2018-07-26T09:59:04.084Z,48.20
2018-07-26T10:01:34.930Z,48.00
2018-07-26T10:04:04.026Z,47.70
2018-07-26T10:06:33.178Z,48.00
2018-07-26T10:09:02.236Z,47.90
2018-07-26T10:11:31.459Z,47.30
2018-07-26T10:14:00.640Z,47.10
2018-07-26T10:16:29.658Z,50.20
2018-07-26T10:18:58.688Z,48.90
2018-07-26T10:21:28.043Z,47.30
2018-07-26T10:23:57.086Z,46.30
2018-07-26T10:26:26.437Z,44.80
2018-07-26T10:28:55.442Z,44.50
2018-07-26T10:31:24.627Z,47.50
2018-07-26T10:33:53.684Z,48.20
2018-07-26T10:36:22.813Z,46.20
2018-07-26T10:38:51.930Z,46.40
2018-07-26T10:41:20.959Z,45.00
2018-07-26T10:43:49.997Z,43.90
2018-07-26T10:46:19.085Z,43.00
2018-07-26T10:48:48.152Z,43.00
2018-07-26T10:51:17.197Z,42.20
2018-07-26T10:53:46.191Z,42.50
2018-07-26T10:56:15.267Z,39.50
2018-07-26T10:58:44.459Z,39.70
2018-07-26T11:01:13.538Z,39.30
2018-07-26T11:03:42.761Z,41.80
2018-07-26T11:06:11.739Z,42.50
2018-07-26T11:08:40.862Z,42.00
2018-07-26T11:11:09.931Z,40.30
2018-07-26T11:13:39.053Z,40.00
2018-07-26T11:16:08.347Z,40.30
2018-07-26T11:21:06.383Z,40.20
2018-07-26T11:23:35.510Z,40.70
2018-07-26T11:26:04.624Z,40.90
2018-07-26T11:28:33.715Z,42.30
2018-07-26T11:31:02.786Z,39.30
2018-07-26T11:33:31.891Z,43.00
2018-07-26T11:36:00.940Z,43.80
2018-07-26T11:38:30.187Z,42.30
2018-07-26T11:40:59.306Z,42.50
2018-07-26T11:45:57.100Z,39.10
2018-07-26T11:48:26.154Z,39.50
2018-07-26T11:50:55.288Z,40.30
2018-07-26T11:53:24.368Z,40.40
2018-07-26T11:55:53.396Z,41.70
2018-07-26T11:58:22.465Z,39.40
2018-07-26T12:00:51.453Z,37.80
2018-07-26T12:05:49.126Z,39.30
2018-07-26T12:08:18.154Z,38.20
2018-07-26T12:10:47.228Z,37.60
2018-07-26T12:13:16.277Z,35.80
2018-07-26T12:15:45.375Z,36.70
2018-07-26T12:18:14.411Z,35.60
2018-07-26T12:20:43.455Z,36.00
2018-07-26T12:23:12.553Z,37.50
2018-07-26T12:25:41.628Z,36.40
2018-07-26T12:28:10.689Z,37.70
2018-07-26T12:33:08.382Z,34.80
2018-07-26T12:35:37.595Z,34.50
2018-07-26T12:38:06.757Z,34.60
2018-07-26T12:40:35.777Z,34.90
2018-07-26T12:43:05.547Z,35.00
2018-07-26T12:45:34.631Z,34.20
2018-07-26T12:48:03.834Z,35.00
2018-07-26T12:50:32.930Z,34.30
2018-07-26T12:55:30.762Z,35.90
2018-07-26T12:57:59.854Z,36.00
2018-07-26T13:00:28.965Z,36.20
2018-07-26T13:02:58.041Z,35.40
2018-07-26T13:05:27.149Z,36.30
2018-07-26T13:07:56.592Z,35.90
2018-07-26T13:10:25.889Z,37.80
2018-07-26T13:12:55.084Z,36.40
2018-07-26T13:15:24.212Z,35.40
2018-07-26T13:17:53.382Z,36.50
2018-07-26T13:20:22.491Z,35.50
2018-07-26T13:22:51.528Z,36.20
2018-07-26T13:25:20.623Z,36.60
2018-07-26T13:27:49.651Z,37.70
2018-07-26T13:30:18.799Z,38.40
2018-07-26T13:32:47.868Z,36.10
2018-07-26T13:35:16.981Z,37.00
2018-07-26T13:37:46.020Z,37.60
2018-07-26T13:40:15.235Z,37.40
2018-07-26T13:42:44.319Z,37.40
2018-07-26T13:45:13.361Z,37.50
2018-07-26T13:47:42.500Z,36.60
2018-07-26T13:50:11.577Z,36.80
2018-07-26T13:52:40.657Z,36.10
2018-07-26T13:55:09.722Z,32.40
2018-07-26T13:57:39.026Z,31.00
2018-07-26T14:00:08.243Z,30.60
2018-07-26T14:02:37.470Z,30.50
2018-07-26T14:05:06.586Z,30.40
2018-07-26T14:07:35.683Z,31.20
2018-07-26T14:10:06.103Z,31.60
2018-07-26T14:12:35.442Z,32.00
2018-07-26T14:15:05.551Z,30.40
2018-07-26T14:17:34.634Z,30.90
2018-07-26T14:20:04.528Z,30.60
2018-07-26T14:25:02.309Z,32.30
2018-07-26T14:27:31.377Z,33.10
2018-07-26T14:30:00.445Z,33.80
2018-07-26T14:32:29.565Z,34.30
2018-07-26T14:35:01.635Z,34.70
2018-07-26T14:37:30.697Z,34.70
2018-07-26T14:40:00.110Z,34.70
2018-07-26T14:42:29.395Z,34.80
2018-07-26T14:47:27.810Z,35.00
2018-07-26T14:49:56.852Z,33.80
2018-07-26T14:52:25.975Z,32.20
2018-07-26T14:57:23.721Z,31.90
2018-07-26T14:59:52.748Z,30.50
2018-07-26T15:02:21.803Z,30.90
2018-07-26T15:04:51.016Z,31.20
2018-07-26T15:07:20.063Z,30.10
2018-07-26T15:09:49.191Z,30.50
2018-07-26T15:12:18.204Z,30.60
2018-07-26T15:14:47.266Z,30.90
2018-07-26T15:17:16.380Z,31.20
2018-07-26T15:19:45.410Z,31.40
2018-07-26T15:22:14.489Z,32.30
2018-07-26T15:24:43.572Z,31.90
2018-07-26T15:27:12.598Z,32.00
2018-07-26T15:32:10.451Z,30.70
2018-07-26T15:34:39.530Z,30.40
2018-07-26T15:37:08.677Z,31.30
2018-07-26T15:39:37.802Z,31.70
2018-07-26T15:42:07.027Z,32.30
2018-07-26T15:44:36.160Z,31.70
2018-07-26T15:47:05.286Z,31.90
2018-07-26T15:49:34.357Z,31.20
2018-07-26T15:52:03.414Z,32.30
2018-07-26T15:54:32.458Z,33.00
2018-07-26T15:57:02.510Z,33.80
2018-07-26T15:59:31.577Z,34.50
2018-07-26T16:02:00.707Z,35.30
2018-07-26T16:04:29.818Z,35.30
2018-07-26T16:06:58.957Z,35.40
2018-07-26T16:11:56.733Z,34.90
2018-07-26T16:14:25.875Z,34.80
2018-07-26T16:16:54.892Z,33.90
2018-07-26T16:19:23.993Z,33.80
2018-07-26T16:21:53.080Z,33.20
2018-07-26T16:26:50.869Z,32.10
2018-07-26T16:29:19.947Z,31.80
2018-07-26T16:31:48.961Z,31.90
2018-07-26T16:36:46.687Z,30.90
2018-07-26T16:39:15.800Z,30.30
2018-07-26T16:41:44.865Z,30.60
2018-07-26T16:46:42.522Z,30.40
2018-07-26T16:49:11.606Z,30.70
2018-07-26T16:51:40.787Z,30.50
2018-07-26T16:54:10.074Z,30.60
2018-07-26T16:56:39.334Z,31.30
2018-07-26T16:59:08.680Z,30.80
2018-07-26T17:01:38.428Z,31.40
2018-07-26T17:04:07.588Z,31.60
2018-07-26T17:06:36.923Z,31.80
2018-07-26T17:09:08.942Z,31.90
2018-07-26T17:11:39.366Z,31.10
2018-07-26T17:14:08.579Z,31.60
2018-07-26T17:16:38.239Z,31.40
2018-07-26T17:19:07.467Z,31.60
2018-07-26T17:21:36.457Z,31.10
2018-07-26T17:24:05.512Z,30.60
2018-07-26T17:26:34.537Z,30.30
2018-07-26T17:29:03.743Z,30.00
2018-07-26T17:31:32.799Z,30.40
2018-07-26T17:34:01.854Z,30.70
2018-07-26T17:36:30.938Z,31.00
2018-07-26T17:39:00.681Z,30.60
2018-07-26T17:43:58.702Z,30.90
2018-07-26T17:46:27.744Z,31.00
2018-07-26T17:48:56.760Z,30.80
2018-07-26T17:51:25.837Z,30.80
2018-07-26T17:53:54.870Z,30.70
2018-07-26T17:56:23.953Z,31.00
2018-07-26T17:58:53.509Z,31.10
2018-07-26T18:01:22.530Z,31.30
2018-07-26T18:03:51.525Z,31.20
2018-07-26T18:06:20.615Z,31.30
2018-07-26T18:08:49.730Z,31.10
2018-07-26T18:11:18.812Z,31.20
2018-07-26T18:13:47.894Z,30.90
2018-07-26T18:16:16.958Z,30.90
2018-07-26T18:18:46.057Z,30.90
2018-07-26T18:21:15.155Z,30.40
2018-07-26T18:23:44.322Z,30.70
2018-07-26T18:26:13.445Z,30.50
2018-07-26T18:31:11.117Z,30.70
2018-07-26T18:33:40.672Z,30.60
2018-07-26T18:36:09.721Z,30.60
2018-07-26T18:38:38.764Z,30.50
2018-07-26T18:41:07.836Z,30.20
2018-07-26T18:43:36.898Z,30.10
2018-07-26T18:46:06.101Z,30.00
2018-07-26T18:48:35.137Z,30.00
2018-07-26T18:51:04.258Z,30.10
2018-07-26T18:53:33.387Z,30.50
2018-07-26T18:56:02.539Z,30.20
2018-07-26T18:58:31.814Z,30.40
2018-07-26T19:03:29.535Z,30.40
2018-07-26T19:05:58.587Z,30.50
2018-07-26T19:08:28.483Z,30.70
2018-07-26T19:10:57.529Z,30.70
2018-07-26T19:13:26.585Z,30.70
2018-07-26T19:15:55.692Z,30.80
2018-07-26T19:18:25.299Z,31.10
2018-07-26T19:20:54.347Z,32.40
2018-07-26T19:23:23.449Z,32.90
2018-07-26T19:25:52.583Z,32.20
2018-07-26T19:28:21.589Z,32.30
2018-07-26T19:30:50.652Z,32.00
2018-07-26T19:33:19.703Z,32.80
2018-07-26T19:35:48.749Z,31.70
2018-07-26T19:38:17.761Z,32.80
2018-07-26T19:40:46.837Z,33.50
2018-07-26T19:43:16.052Z,32.40
2018-07-26T19:45:45.269Z,32.30
2018-07-26T19:48:14.419Z,33.90
2018-07-26T19:50:43.689Z,33.10
2018-07-26T19:53:12.751Z,33.00
2018-07-26T19:55:42.001Z,36.80
2018-07-26T19:58:11.045Z,34.90
2018-07-26T20:00:40.237Z,38.60
2018-07-26T20:03:09.330Z,36.90
2018-07-26T20:05:38.349Z,39.30
2018-07-26T20:08:07.936Z,42.00
2018-07-26T20:10:37.085Z,40.40
2018-07-26T20:13:06.222Z,43.70
2018-07-26T20:15:35.270Z,39.60
2018-07-26T20:23:01.863Z,45.60
2018-07-26T20:27:59.601Z,42.70
2018-07-26T20:30:28.664Z,47.90
2018-07-26T20:32:57.693Z,47.20
2018-07-26T20:35:26.827Z,48.50
2018-07-26T20:37:55.884Z,52.10
2018-07-26T20:40:25.453Z,54.40
2018-07-26T20:42:54.540Z,54.50
2018-07-26T20:45:23.625Z,56.70
2018-07-26T20:47:52.648Z,58.10
2018-07-26T20:50:21.696Z,59.10
2018-07-26T20:52:50.865Z,61.00
2018-07-26T20:55:19.946Z,60.80
2018-07-26T20:57:48.970Z,61.50
2018-07-26T21:00:18.101Z,61.90
2018-07-26T21:02:47.106Z,63.00
2018-07-26T21:05:16.170Z,64.00
2018-07-26T21:07:45.194Z,65.00
2018-07-26T21:10:14.249Z,66.70
2018-07-26T21:12:43.312Z,67.80
2018-07-26T21:15:12.451Z,69.30
2018-07-26T21:17:41.474Z,70.10
2018-07-26T21:20:10.600Z,71.20
2018-07-26T21:22:39.656Z,72.60
2018-07-26T21:25:08.717Z,73.60
2018-07-26T21:27:37.741Z,74.40
2018-07-26T21:30:07.277Z,76.50
2018-07-26T21:32:36.571Z,77.70
2018-07-26T21:35:06.753Z,78.20
2018-07-26T21:37:36.112Z,81.60
2018-07-26T21:40:06.098Z,81.10
2018-07-26T21:42:35.541Z,81.20
2018-07-26T21:45:05.085Z,81.70
2018-07-26T21:47:34.144Z,83.40
2018-07-26T21:50:03.273Z,85.30
2018-07-26T21:52:32.536Z,84.50
2018-07-26T21:55:01.732Z,86.30
2018-07-26T21:57:30.784Z,87.30
2018-07-26T21:59:59.829Z,87.80
2018-07-26T22:02:28.910Z,89.10
2018-07-26T22:05:00.882Z,89.70
2018-07-26T22:07:30.120Z,90.00
2018-07-26T22:09:59.170Z,90.20
2018-07-26T22:12:29.117Z,91.20
2018-07-26T22:14:58.246Z,90.90
2018-07-26T22:17:27.230Z,91.30
2018-07-26T22:19:56.235Z,91.10
2018-07-26T22:22:25.470Z,91.80
2018-07-26T22:24:54.507Z,92.00
2018-07-26T22:27:23.604Z,91.60
2018-07-26T22:32:21.325Z,92.80
2018-07-26T22:34:50.697Z,92.80
2018-07-26T22:37:19.818Z,92.80
2018-07-26T22:39:48.885Z,93.40
2018-07-26T22:42:17.941Z,94.50
2018-07-26T22:44:46.975Z,94.40
2018-07-26T22:47:16.204Z,95.10
2018-07-26T22:49:45.236Z,95.40
2018-07-26T22:52:14.333Z,95.80
2018-07-26T22:54:43.365Z,96.00
2018-07-26T22:57:12.418Z,95.80
2018-07-26T22:59:41.430Z,96.30
2018-07-26T23:02:10.489Z,96.50
2018-07-26T23:04:39.538Z,96.80
2018-07-26T23:07:08.764Z,97.10
2018-07-26T23:09:37.803Z,97.60
2018-07-26T23:12:06.886Z,97.00
2018-07-26T23:14:35.918Z,97.30
2018-07-26T23:17:04.951Z,97.60
2018-07-26T23:19:34.148Z,97.30
2018-07-26T23:22:03.193Z,96.70
2018-07-26T23:24:32.328Z,96.80
2018-07-26T23:27:01.354Z,96.70
2018-07-26T23:29:30.525Z,95.80
2018-07-26T23:31:59.543Z,95.30
2018-07-26T23:36:57.153Z,96.90
2018-07-26T23:39:26.151Z,96.10
2018-07-26T23:41:55.291Z,96.00
2018-07-26T23:44:24.317Z,94.50
2018-07-26T23:46:53.619Z,94.70
2018-07-26T23:49:22.600Z,95.20
2018-07-26T23:51:51.658Z,94.80
2018-07-26T23:54:20.689Z,95.00
2018-07-26T23:59:18.369Z,94.70
